Time;durP1;ratioP1;P1;durP2;ratioP2;P2;SDS_P1;SDS_P2;PMS_P1;PMS_P2;Temp;Humidity;BMP_temperature;BMP_pressure;BME280_temperature;BME280_humidity;BME280_pressure;Samples;Min_cycle;Max_cycle;Signal;HPM_P1;HPM_P2
2021/07/25 00:00:08;;;;;;;6.75;5.70;;;17.00;99.90;;;;;;5071947;28;20439;-47
2021/07/25 00:02:37;;;;;;;7.35;6.05;;;17.10;99.90;;;;;;5071984;28;20310;-48
2021/07/25 00:05:09;;;;;;;10.23;5.82;;;17.10;99.90;;;;;;5071908;28;20514;-50
2021/07/25 00:07:37;;;;;;;14.75;7.25;;;17.10;99.90;;;;;;5071905;28;20219;-47
2021/07/25 00:10:06;;;;;;;8.23;6.13;;;17.20;99.90;;;;;;5071835;28;20290;-46
2021/07/25 00:12:34;;;;;;;9.10;6.22;;;17.20;99.90;;;;;;5071678;28;20214;-47
2021/07/25 00:15:02;;;;;;;13.38;6.85;;;17.20;99.90;;;;;;5071976;28;20239;-50
2021/07/25 00:17:30;;;;;;;7.75;5.65;;;17.20;99.90;;;;;;5071379;28;20297;-49
2021/07/25 00:19:59;;;;;;;10.40;6.50;;;17.20;99.90;;;;;;5071822;28;20675;-48
2021/07/25 00:22:28;;;;;;;13.10;5.97;;;17.20;99.90;;;;;;5071818;28;20289;-54
2021/07/25 00:25:07;;;;;;;10.63;6.13;;;17.20;99.90;;;;;;5071669;28;20239;-50
2021/07/25 00:27:36;;;;;;;10.07;6.65;;;17.20;99.90;;;;;;5071370;28;20214;-48
2021/07/25 00:30:05;;;;;;;9.18;6.40;;;17.20;99.90;;;;;;5071726;28;20242;-46
2021/07/25 00:32:34;;;;;;;7.45;6.18;;;17.20;99.90;;;;;;5071760;28;20294;-47
2021/07/25 00:35:02;;;;;;;12.00;6.40;;;17.20;99.90;;;;;;5071777;28;20219;-45
2021/07/25 00:37:31;;;;;;;7.72;5.95;;;17.30;99.90;;;;;;5071724;28;20650;-47
2021/07/25 00:39:59;;;;;;;9.63;6.20;;;17.30;99.90;;;;;;5071512;28;20301;-48
2021/07/25 00:42:37;;;;;;;9.60;6.63;;;17.30;99.90;;;;;;5071748;28;20207;-49
2021/07/25 00:45:06;;;;;;;7.55;6.63;;;17.30;99.90;;;;;;5071480;28;20741;-47
2021/07/25 00:47:35;;;;;;;10.27;6.50;;;17.30;99.90;;;;;;5071497;28;20254;-47
2021/07/25 00:50:04;;;;;;;10.52;6.50;;;17.40;99.90;;;;;;5071476;28;20298;-50
2021/07/25 00:52:33;;;;;;;7.65;6.20;;;17.40;99.90;;;;;;5071746;28;20306;-49
2021/07/25 00:55:02;;;;;;;12.90;6.32;;;17.40;99.90;;;;;;5071498;28;20217;-50
2021/07/25 00:57:30;;;;;;;8.40;6.68;;;17.40;99.90;;;;;;5071421;28;20619;-50
2021/07/25 00:59:57;;;;;;;17.20;7.50;;;17.40;99.90;;;;;;5071539;28;20290;-48
2021/07/25 01:02:26;;;;;;;13.40;7.03;;;17.40;99.90;;;;;;5071515;28;20295;-50
2021/07/25 01:04:59;;;;;;;14.63;7.60;;;17.40;99.90;;;;;;5071295;28;20576;-51
2021/07/25 01:07:32;;;;;;;15.88;7.30;;;17.40;99.90;;;;;;5071341;28;20638;-47
2021/07/25 01:10:06;;;;;;;11.55;7.05;;;17.50;99.90;;;;;;5074266;28;20694;-51
2021/07/25 01:12:41;;;;;;;10.48;7.05;;;17.50;99.90;;;;;;5075361;28;20242;-49
2021/07/25 01:15:14;;;;;;;8.23;6.57;;;17.50;99.90;;;;;;5075294;28;20682;-47
2021/07/25 01:17:42;;;;;;;9.38;8.13;;;17.50;99.90;;;;;;5075270;28;20241;-49
2021/07/25 01:20:13;;;;;;;9.75;7.28;;;17.50;99.90;;;;;;5075559;28;20246;-48
2021/07/25 01:22:43;;;;;;;12.88;7.82;;;17.50;99.90;;;;;;5075289;28;20290;-46
2021/07/25 01:25:12;;;;;;;8.30;6.72;;;17.40;99.90;;;;;;5075028;28;20211;-50
2021/07/25 01:27:44;;;;;;;10.48;7.72;;;17.40;99.90;;;;;;5074934;28;20694;-49
2021/07/25 01:30:16;;;;;;;11.93;7.82;;;17.40;99.90;;;;;;5075247;28;20294;-49
2021/07/25 01:32:45;;;;;;;13.70;10.93;;;17.30;99.90;;;;;;5074903;28;20203;-49
2021/07/25 01:35:15;;;;;;;11.63;8.57;;;17.30;99.90;;;;;;5074919;28;20295;-49
2021/07/25 01:37:44;;;;;;;13.07;9.23;;;17.30;99.90;;;;;;5074918;28;20557;-48
2021/07/25 01:40:14;;;;;;;9.30;7.40;;;17.30;99.90;;;;;;5074749;28;20203;-49
2021/07/25 01:42:43;;;;;;;11.00;8.70;;;17.30;99.90;;;;;;5074826;28;20249;-47
2021/07/25 01:45:12;;;;;;;15.07;7.68;;;17.20;99.90;;;;;;5074546;28;20212;-51
2021/07/25 01:47:40;;;;;;;9.32;6.63;;;17.20;99.90;;;;;;5074730;28;20218;-48
2021/07/25 01:50:10;;;;;;;10.88;7.85;;;17.20;99.90;;;;;;5074597;28;20212;-47
2021/07/25 01:52:39;;;;;;;13.13;8.15;;;17.20;99.90;;;;;;5074367;28;20295;-48
2021/07/25 01:55:08;;;;;;;11.85;7.60;;;17.20;99.90;;;;;;5074630;28;20427;-48
2021/07/25 01:57:36;;;;;;;9.20;8.20;;;17.20;99.90;;;;;;5074295;28;20290;-52
2021/07/25 02:00:05;;;;;;;10.55;7.15;;;17.20;99.90;;;;;;5074111;28;20217;-48
2021/07/25 02:02:33;;;;;;;7.95;6.93;;;17.10;99.90;;;;;;5074367;28;20310;-49
2021/07/25 02:05:02;;;;;;;8.90;6.72;;;17.00;99.90;;;;;;5074368;28;20298;-50
2021/07/25 02:07:30;;;;;;;11.05;8.13;;;17.00;99.90;;;;;;5074192;28;20382;-51
2021/07/25 02:09:59;;;;;;;11.27;7.55;;;16.90;99.90;;;;;;5073699;28;20207;-52
2021/07/25 02:12:27;;;;;;;8.23;7.43;;;16.80;99.90;;;;;;5074410;28;20238;-49
2021/07/25 02:14:55;;;;;;;13.15;9.10;;;16.70;99.90;;;;;;5074265;28;20257;-52
2021/07/25 02:17:23;;;;;;;9.10;7.70;;;16.70;99.90;;;;;;5074041;28;20217;-51
2021/07/25 02:19:51;;;;;;;10.27;6.50;;;16.70;99.90;;;;;;5073693;28;20238;-47
2021/07/25 02:22:19;;;;;;;11.05;6.60;;;16.70;99.90;;;;;;5073686;28;20369;-49
2021/07/25 02:24:47;;;;;;;7.07;6.38;;;16.60;99.90;;;;;;5073871;28;20222;-55
2021/07/25 02:27:16;;;;;;;8.00;6.13;;;16.60;99.90;;;;;;5074128;28;20231;-52
2021/07/25 02:29:44;;;;;;;9.52;6.10;;;16.70;99.90;;;;;;5073920;28;20234;-54
2021/07/25 02:32:12;;;;;;;7.57;6.20;;;16.70;99.90;;;;;;5073784;28;20246;-51
2021/07/25 02:34:41;;;;;;;7.40;6.05;;;16.70;99.90;;;;;;5074095;28;20211;-53
2021/07/25 02:37:11;;;;;;;8.27;5.22;;;16.80;99.90;;;;;;5073985;28;20218;-49
2021/07/25 02:39:39;;;;;;;8.30;5.57;;;16.80;99.90;;;;;;5073872;28;20302;-49
2021/07/25 02:42:08;;;;;;;8.52;6.53;;;16.80;99.90;;;;;;5073616;28;20223;-52
2021/07/25 02:44:37;;;;;;;7.82;6.60;;;16.80;99.90;;;;;;5073623;28;20641;-50
2021/07/25 02:47:05;;;;;;;8.05;7.00;;;16.90;99.90;;;;;;5073626;28;20333;-51
2021/07/25 02:49:33;;;;;;;7.82;6.60;;;16.90;99.90;;;;;;5073588;28;20651;-52
2021/07/25 02:52:02;;;;;;;9.02;6.45;;;16.90;99.90;;;;;;5073691;28;20293;-53
2021/07/25 02:54:30;;;;;;;9.60;6.07;;;17.00;99.90;;;;;;5073601;28;20235;-52
2021/07/25 02:56:58;;;;;;;7.78;6.30;;;17.00;99.90;;;;;;5073517;28;20309;-53
2021/07/25 02:59:25;;;;;;;7.13;6.43;;;17.00;99.90;;;;;;5073360;28;20212;-52
2021/07/25 03:01:55;;;;;;;10.52;6.80;;;17.10;99.90;;;;;;5073211;28;20670;-51
2021/07/25 03:04:23;;;;;;;9.13;5.80;;;17.10;99.90;;;;;;5073409;28;20572;-54
2021/07/25 03:06:51;;;;;;;8.02;6.18;;;17.10;99.90;;;;;;5073412;28;20318;-50
2021/07/25 03:09:19;;;;;;;7.80;5.95;;;17.20;99.90;;;;;;5073306;28;20298;-53
2021/07/25 03:11:47;;;;;;;7.85;5.50;;;17.20;99.90;;;;;;5073073;28;20599;-49
2021/07/25 03:14:15;;;;;;;9.73;6.43;;;17.20;99.90;;;;;;5073099;28;20705;-53
2021/07/25 03:16:45;;;;;;;7.45;6.40;;;17.30;99.90;;;;;;5072997;28;20562;-53
2021/07/25 03:19:14;;;;;;;6.88;5.47;;;17.30;99.90;;;;;;5072816;28;20232;-54
2021/07/25 03:21:43;;;;;;;8.13;5.82;;;17.30;99.90;;;;;;5072773;28;20318;-50
2021/07/25 03:24:10;;;;;;;7.95;6.22;;;17.20;99.90;;;;;;5072946;28;20307;-50
2021/07/25 03:26:38;;;;;;;9.07;6.90;;;17.20;99.90;;;;;;5072785;28;20211;-49
2021/07/25 03:29:06;;;;;;;9.90;6.72;;;17.20;99.90;;;;;;5072995;28;20310;-50
2021/07/25 03:31:34;;;;;;;7.13;6.25;;;17.20;99.90;;;;;;5072700;28;20207;-52
2021/07/25 03:34:02;;;;;;;7.25;5.88;;;17.10;99.90;;;;;;5072692;28;20316;-52
2021/07/25 03:36:31;;;;;;;7.05;6.35;;;17.10;99.90;;;;;;5072690;28;20235;-52
2021/07/25 03:38:59;;;;;;;8.10;7.00;;;17.10;99.90;;;;;;5072441;28;20211;-49
2021/07/25 03:41:27;;;;;;;7.82;6.70;;;17.10;99.90;;;;;;5072830;28;20235;-50
2021/07/25 03:43:55;;;;;;;7.80;6.60;;;17.00;99.90;;;;;;5072854;28;20239;-53
2021/07/25 03:46:23;;;;;;;6.82;6.03;;;17.00;99.90;;;;;;5072760;28;20242;-51
2021/07/25 03:48:51;;;;;;;6.75;5.97;;;17.00;99.90;;;;;;5072693;28;20230;-49
2021/07/25 03:51:19;;;;;;;7.50;6.20;;;17.00;99.90;;;;;;5072624;28;20630;-50
2021/07/25 03:53:48;;;;;;;8.63;6.43;;;17.00;99.90;;;;;;5072509;28;20227;-52
2021/07/25 03:56:19;;;;;;;8.90;8.00;;;17.00;99.90;;;;;;5072487;28;20247;-51
2021/07/25 03:58:48;;;;;;;8.73;6.85;;;17.00;99.90;;;;;;5072613;28;20211;-50
2021/07/25 04:01:16;;;;;;;9.48;7.10;;;17.10;99.90;;;;;;5072365;28;20349;-51
2021/07/25 04:03:46;;;;;;;8.27;6.57;;;17.10;99.90;;;;;;5071860;28;20223;-48
2021/07/25 04:06:14;;;;;;;9.80;7.00;;;17.10;99.90;;;;;;5072063;28;20229;-54
2021/07/25 04:08:42;;;;;;;9.48;7.45;;;17.00;99.90;;;;;;5072326;28;20298;-48
2021/07/25 04:11:16;;;;;;;12.70;7.85;;;17.00;99.90;;;;;;5072430;28;20213;-49
2021/07/25 04:13:44;;;;;;;11.38;7.50;;;17.00;99.90;;;;;;5072699;28;20207;-47
2021/07/25 04:16:13;;;;;;;8.98;8.07;;;17.10;99.90;;;;;;5072061;28;20314;-50
2021/07/25 04:18:41;;;;;;;8.95;6.63;;;17.10;99.90;;;;;;5072068;28;20675;-49
2021/07/25 04:21:09;;;;;;;8.93;7.65;;;17.10;99.90;;;;;;5072097;28;20693;-47
2021/07/25 04:23:39;;;;;;;9.73;7.43;;;17.10;99.90;;;;;;5072035;28;20227;-49
2021/07/25 04:26:07;;;;;;;12.13;8.52;;;17.10;99.90;;;;;;5072063;28;20231;-48
2021/07/25 04:28:38;;;;;;;12.30;7.80;;;17.10;99.90;;;;;;5071998;28;20207;-47
2021/07/25 04:31:07;;;;;;;12.70;8.95;;;17.20;99.90;;;;;;5071916;28;20211;-49
2021/07/25 04:33:36;;;;;;;9.38;8.20;;;17.20;99.90;;;;;;5071998;28;20210;-51
2021/07/25 04:36:11;;;;;;;9.93;8.15;;;17.30;99.90;;;;;;5072102;28;20230;-48
2021/07/25 04:38:40;;;;;;;11.50;7.85;;;17.30;99.90;;;;;;5072063;28;20213;-48
2021/07/25 04:41:11;;;;;;;9.88;7.85;;;17.30;99.90;;;;;;5072096;28;20632;-50
2021/07/25 04:43:40;;;;;;;10.15;8.27;;;17.30;99.90;;;;;;5071705;28;20271;-50
2021/07/25 04:46:12;;;;;;;12.27;8.48;;;17.30;99.90;;;;;;5071916;28;20689;-47
2021/07/25 04:48:47;;;;;;;8.90;7.38;;;17.30;99.90;;;;;;5071910;28;20207;-49
2021/07/25 04:51:18;;;;;;;9.73;7.95;;;17.30;99.90;;;;;;5071882;28;20211;-50
2021/07/25 04:53:50;;;;;;;18.75;7.63;;;17.30;99.90;;;;;;5071875;28;20214;-46
2021/07/25 04:56:20;;;;;;;10.30;8.23;;;17.40;99.90;;;;;;5071805;28;20243;-47
2021/07/25 04:58:55;;;;;;;12.27;7.55;;;17.40;99.90;;;;;;5072156;28;20213;-48
2021/07/25 05:01:27;;;;;;;9.77;8.25;;;17.40;99.90;;;;;;5072054;28;20301;-49
2021/07/25 05:03:56;;;;;;;12.43;8.82;;;17.50;99.90;;;;;;5071915;28;20389;-50
2021/07/25 05:06:24;;;;;;;13.32;9.77;;;17.60;99.90;;;;;;5071667;28;20299;-48
2021/07/25 05:08:52;;;;;;;8.38;7.43;;;17.60;99.90;;;;;;5072047;28;20298;-51
2021/07/25 05:11:22;;;;;;;10.98;8.52;;;17.60;99.90;;;;;;5071860;28;20637;-48
2021/07/25 05:13:55;;;;;;;12.65;8.85;;;17.70;99.90;;;;;;5071784;28;20286;-54
2021/07/25 05:16:27;;;;;;;9.25;8.27;;;17.70;99.90;;;;;;5071603;28;20215;-50
2021/07/25 05:19:05;;;;;;;9.25;8.45;;;17.80;99.90;;;;;;5071549;28;20246;-52
2021/07/25 05:21:41;;;;;;;9.48;8.32;;;17.80;99.90;;;;;;5071783;28;20743;-52
2021/07/25 05:24:10;;;;;;;10.85;8.75;;;17.80;99.90;;;;;;5071779;28;20262;-48
2021/07/25 05:26:38;;;;;;;10.30;8.10;;;17.80;99.90;;;;;;5071696;28;20251;-48
2021/07/25 05:29:09;;;;;;;11.30;8.13;;;17.80;99.90;;;;;;5071637;28;20306;-52
2021/07/25 05:31:38;;;;;;;12.02;9.05;;;17.80;99.90;;;;;;5071700;28;20640;-51
2021/07/25 05:34:06;;;;;;;10.40;8.50;;;17.80;99.90;;;;;;5071764;28;20546;-53
2021/07/25 05:36:34;;;;;;;9.93;8.77;;;17.80;99.90;;;;;;5071657;28;20225;-52
2021/07/25 05:39:02;;;;;;;9.52;8.50;;;17.80;99.90;;;;;;5071651;28;20290;-51
2021/07/25 05:41:30;;;;;;;14.10;8.82;;;17.80;99.90;;;;;;5071518;28;20631;-53
2021/07/25 05:43:58;;;;;;;9.38;8.43;;;17.90;99.90;;;;;;5071304;28;20772;-48
2021/07/25 05:46:27;;;;;;;11.27;10.18;;;17.90;99.90;;;;;;5071605;28;20334;-50
2021/07/25 05:48:55;;;;;;;10.55;8.25;;;17.90;99.90;;;;;;5071503;28;20204;-48
2021/07/25 05:51:23;;;;;;;9.35;7.97;;;17.90;99.90;;;;;;5071621;28;20253;-49
2021/07/25 05:53:51;;;;;;;9.15;7.88;;;17.90;99.90;;;;;;5071266;28;20199;-50
2021/07/25 05:56:19;;;;;;;9.80;7.38;;;17.90;99.90;;;;;;5072933;28;20241;-54
2021/07/25 05:58:47;;;;;;;8.63;7.70;;;17.90;99.90;;;;;;5074958;28;20363;-48
2021/07/25 06:01:15;;;;;;;11.55;7.85;;;17.80;99.90;;;;;;5074754;28;20207;-47
2021/07/25 06:03:44;;;;;;;9.30;7.45;;;17.90;99.90;;;;;;5075016;28;20219;-52
2021/07/25 06:06:12;;;;;;;9.63;7.43;;;17.90;99.90;;;;;;5074678;28;20211;-51
2021/07/25 06:08:40;;;;;;;7.45;6.75;;;17.90;99.90;;;;;;5074688;28;20776;-53
2021/07/25 06:11:08;;;;;;;8.07;6.68;;;17.90;99.90;;;;;;5074427;28;20246;-53
2021/07/25 06:13:36;;;;;;;10.45;8.23;;;18.00;99.90;;;;;;5074674;28;20227;-53
2021/07/25 06:16:06;;;;;;;8.57;7.57;;;18.00;99.90;;;;;;5074461;28;20211;-49
2021/07/25 06:18:34;;;;;;;8.43;7.55;;;18.10;99.90;;;;;;5074227;28;20275;-48
2021/07/25 06:21:03;;;;;;;9.52;8.02;;;18.10;99.90;;;;;;5074283;28;20203;-49
2021/07/25 06:23:31;;;;;;;7.00;6.32;;;18.10;99.90;;;;;;5074365;28;20322;-51
2021/07/25 06:25:59;;;;;;;8.07;7.20;;;18.10;99.90;;;;;;5074584;28;20565;-53
2021/07/25 06:28:27;;;;;;;8.98;7.75;;;18.20;99.90;;;;;;5074352;28;20294;-52
2021/07/25 06:30:55;;;;;;;9.52;7.38;;;18.20;99.90;;;;;;5074385;28;20211;-50
2021/07/25 06:33:24;;;;;;;8.63;7.70;;;18.20;99.90;;;;;;5074310;28;20239;-53
2021/07/25 06:35:52;;;;;;;8.48;7.70;;;18.20;99.90;;;;;;5074138;28;20204;-54
2021/07/25 06:38:22;;;;;;;9.20;8.32;;;18.30;99.90;;;;;;5074102;28;20402;-52
2021/07/25 06:40:52;;;;;;;9.07;7.43;;;18.40;99.90;;;;;;5074030;28;20684;-48
2021/07/25 06:43:21;;;;;;;9.68;7.25;;;18.40;99.90;;;;;;5073956;28;20238;-54
2021/07/25 06:45:49;;;;;;;9.35;8.55;;;18.50;99.90;;;;;;5074052;28;20305;-51
2021/07/25 06:48:19;;;;;;;11.38;8.93;;;18.60;99.90;;;;;;5073882;28;20207;-51
2021/07/25 06:50:48;;;;;;;8.05;7.32;;;18.60;99.90;;;;;;5073849;28;20193;-51
2021/07/25 06:53:16;;;;;;;8.50;7.72;;;18.60;99.90;;;;;;5073759;28;20674;-50
2021/07/25 06:55:47;;;;;;;11.55;9.20;;;18.60;99.90;;;;;;5073964;28;20235;-51
2021/07/25 06:58:15;;;;;;;10.65;8.93;;;18.60;99.90;;;;;;5073702;28;20211;-53
2021/07/25 07:00:43;;;;;;;10.35;8.73;;;18.60;99.90;;;;;;5073725;28;20250;-51
2021/07/25 07:03:11;;;;;;;10.68;9.73;;;18.70;99.90;;;;;;5073421;28;20214;-53
2021/07/25 07:05:39;;;;;;;10.20;9.13;;;18.70;99.90;;;;;;5073573;28;20234;-54
2021/07/25 07:08:08;;;;;;;11.18;9.43;;;18.80;99.90;;;;;;5073330;28;20581;-55
2021/07/25 07:10:38;;;;;;;13.07;9.68;;;18.80;99.90;;;;;;5073408;28;20310;-53
2021/07/25 07:13:11;;;;;;;9.52;8.48;;;18.90;99.90;;;;;;5073382;28;20216;-51
2021/07/25 07:15:41;;;;;;;19.30;15.35;;;19.10;99.90;;;;;;5073222;28;20302;-51
2021/07/25 07:18:10;;;;;;;12.00;9.50;;;19.20;99.90;;;;;;5073140;28;20283;-49
2021/07/25 07:20:38;;;;;;;12.82;10.50;;;19.30;99.90;;;;;;5073095;28;20295;-50
2021/07/25 07:23:08;;;;;;;9.77;8.88;;;19.20;99.90;;;;;;5072978;28;20259;-51
2021/07/25 07:25:39;;;;;;;11.98;10.63;;;19.20;99.90;;;;;;5072897;28;20262;-53
2021/07/25 07:28:09;;;;;;;9.23;8.45;;;19.10;99.90;;;;;;5072950;28;20298;-52
2021/07/25 07:30:37;;;;;;;8.57;7.78;;;19.00;99.90;;;;;;5073209;28;20254;-50
2021/07/25 07:33:07;;;;;;;8.20;7.43;;;18.90;99.90;;;;;;5073128;28;20241;-48
2021/07/25 07:35:35;;;;;;;9.25;7.63;;;18.70;99.90;;;;;;5073122;28;20610;-49
2021/07/25 07:38:04;;;;;;;9.60;7.88;;;18.70;99.90;;;;;;5073014;28;20207;-54
2021/07/25 07:40:33;;;;;;;9.18;8.27;;;18.70;99.90;;;;;;5072844;28;20290;-50
2021/07/25 07:43:01;;;;;;;9.27;8.35;;;18.70;99.90;;;;;;5073062;28;20302;-49
2021/07/25 07:45:30;;;;;;;10.15;8.35;;;18.80;99.90;;;;;;5072928;28;20267;-52
2021/07/25 07:47:58;;;;;;;8.82;8.02;;;18.80;99.90;;;;;;5072921;28;20247;-53
2021/07/25 07:50:26;;;;;;;9.68;8.57;;;18.80;99.90;;;;;;5072664;28;20302;-54
2021/07/25 07:52:54;;;;;;;9.77;8.70;;;18.80;99.90;;;;;;5072468;28;20261;-52
2021/07/25 07:55:22;;;;;;;9.15;8.25;;;18.80;99.90;;;;;;5072762;28;20286;-49
2021/07/25 07:57:50;;;;;;;8.73;7.72;;;18.80;99.90;;;;;;5072630;28;20302;-51
2021/07/25 08:00:18;;;;;;;7.50;6.80;;;18.80;99.90;;;;;;5072552;28;20315;-48
2021/07/25 08:02:48;;;;;;;8.52;7.70;;;18.70;99.90;;;;;;5072498;28;20302;-51
2021/07/25 08:05:18;;;;;;;8.02;7.32;;;18.70;99.90;;;;;;5072170;28;20255;-50
2021/07/25 08:07:46;;;;;;;9.05;8.25;;;18.70;99.90;;;;;;5072035;28;20203;-52
2021/07/25 08:10:14;;;;;;;10.15;7.75;;;18.60;99.90;;;;;;5072400;28;20211;-51
2021/07/25 08:12:42;;;;;;;10.35;8.95;;;18.50;99.90;;;;;;5072087;28;20532;-54
2021/07/25 08:15:12;;;;;;;9.05;8.25;;;18.50;99.90;;;;;;5072158;28;20290;-47
2021/07/25 08:17:40;;;;;;;9.48;8.57;;;18.40;99.90;;;;;;5071637;28;20247;-48
2021/07/25 08:20:11;;;;;;;10.80;8.32;;;18.40;99.90;;;;;;5071548;28;20243;-53
2021/07/25 08:22:42;;;;;;;12.05;9.95;;;18.50;99.90;;;;;;5072346;28;20294;-50
2021/07/25 08:25:11;;;;;;;8.63;7.72;;;18.50;99.90;;;;;;5072103;28;20285;-50
2021/07/25 08:27:38;;;;;;;8.13;7.28;;;18.50;99.90;;;;;;5072143;28;20214;-54
2021/07/25 08:30:07;;;;;;;9.57;8.38;;;18.50;99.90;;;;;;5071994;28;20302;-54
2021/07/25 08:32:35;;;;;;;7.93;7.28;;;18.50;99.90;;;;;;5071771;28;20211;-54
2021/07/25 08:35:04;;;;;;;10.32;9.32;;;18.60;99.90;;;;;;5071762;28;20290;-53
2021/07/25 08:37:34;;;;;;;11.93;8.93;;;18.60;99.90;;;;;;5071846;28;20334;-46
2021/07/25 08:40:02;;;;;;;10.93;9.73;;;18.60;99.90;;;;;;5071940;28;20207;-51
2021/07/25 08:42:34;;;;;;;11.05;9.98;;;18.70;99.90;;;;;;5071913;28;20667;-52
2021/07/25 08:45:03;;;;;;;9.65;8.52;;;18.70;99.90;;;;;;5071728;28;20229;-49
2021/07/25 08:47:41;;;;;;;12.77;10.68;;;18.90;99.90;;;;;;5071396;28;20284;-50
2021/07/25 08:50:12;;;;;;;12.90;11.40;;;19.00;99.90;;;;;;5071407;28;20247;-52
2021/07/25 08:52:43;;;;;;;14.57;13.20;;;19.20;99.90;;;;;;5071363;28;20219;-49
2021/07/25 08:55:13;;;;;;;14.88;13.38;;;19.40;99.90;;;;;;5071320;28;20394;-51
2021/07/25 08:57:43;;;;;;;14.10;12.73;;;19.50;99.90;;;;;;5071257;28;20207;-49
2021/07/25 09:00:13;;;;;;;15.48;13.98;;;19.60;99.90;;;;;;5071949;28;20223;-51
2021/07/25 09:02:42;;;;;;;13.48;12.18;;;19.80;99.90;;;;;;5071455;28;20247;-52
2021/07/25 09:05:11;;;;;;;15.07;13.60;;;20.00;99.90;;;;;;5071516;28;20663;-50
2021/07/25 09:07:42;;;;;;;16.05;14.38;;;20.10;99.90;;;;;;5071664;28;20249;-52
2021/07/25 09:10:13;;;;;;;15.35;12.55;;;20.40;99.90;;;;;;5071491;28;20294;-47
2021/07/25 09:12:41;;;;;;;18.17;16.27;;;20.60;99.90;;;;;;5071767;28;20204;-48
2021/07/25 09:15:12;;;;;;;13.75;12.45;;;20.70;99.90;;;;;;5071580;28;20319;-49
2021/07/25 09:17:40;;;;;;;10.63;9.73;;;20.80;99.90;;;;;;5071135;28;20215;-49
2021/07/25 09:20:17;;;;;;;11.32;10.23;;;20.80;99.90;;;;;;5071305;28;20697;-53
2021/07/25 09:23:08;;;;;;;10.43;9.43;;;21.00;99.90;;;;;;5071244;28;20261;-51
2021/07/25 09:25:40;;;;;;;11.88;9.55;;;21.10;99.90;;;;;;5071457;28;20231;-47
2021/07/25 09:28:26;;;;;;;12.05;10.95;;;21.20;99.90;;;;;;5071210;28;20230;-51
2021/07/25 09:30:55;;;;;;;10.10;9.15;;;21.10;99.90;;;;;;5074011;28;20233;-49
2021/07/25 09:33:32;;;;;;;10.07;9.07;;;21.00;99.90;;;;;;5075135;28;20738;-52
2021/07/25 09:36:19;;;;;;;10.20;9.20;;;20.90;99.90;;;;;;5075253;28;20658;-49
2021/07/25 09:38:50;;;;;;;9.07;8.32;;;21.00;99.90;;;;;;5075190;28;20294;-49
2021/07/25 09:41:21;;;;;;;9.63;7.75;;;21.00;99.90;;;;;;5075018;28;20303;-54
2021/07/25 09:44:00;;;;;;;8.25;7.45;;;21.10;99.90;;;;;;5074943;28;20576;-49
2021/07/25 09:46:28;;;;;;;10.55;8.68;;;21.20;99.90;;;;;;5075012;28;20309;-46
2021/07/25 09:48:57;;;;;;;8.95;6.93;;;21.30;99.90;;;;;;5074829;28;20651;-49
2021/07/25 09:51:25;;;;;;;7.03;6.32;;;21.50;99.90;;;;;;5074937;28;20241;-47
2021/07/25 09:53:55;;;;;;;8.23;7.43;;;21.70;99.90;;;;;;5074755;28;20230;-48
2021/07/25 09:56:28;;;;;;;7.78;6.32;;;21.90;99.90;;;;;;5075025;28;20516;-48
2021/07/25 09:58:57;;;;;;;7.70;6.97;;;22.00;99.90;;;;;;5075014;28;20207;-48
2021/07/25 10:01:35;;;;;;;9.82;5.75;;;22.20;99.90;;;;;;5074916;28;20212;-49
2021/07/25 10:04:15;;;;;;;6.20;5.60;;;22.30;99.90;;;;;;5074729;28;20217;-47
2021/07/25 10:06:44;;;;;;;4.65;4.32;;;22.40;99.90;;;;;;5074498;28;20238;-49
2021/07/25 10:09:15;;;;;;;5.50;5.00;;;22.50;99.90;;;;;;5074538;28;20211;-49
2021/07/25 10:11:48;;;;;;;6.20;5.65;;;22.60;99.90;;;;;;5074367;28;20624;-50
2021/07/25 10:14:19;;;;;;;7.22;6.07;;;22.60;99.90;;;;;;5074436;28;20211;-48
2021/07/25 10:16:52;;;;;;;6.55;5.93;;;22.50;99.90;;;;;;5074327;28;20306;-52
2021/07/25 10:19:27;;;;;;;5.88;5.35;;;22.40;99.90;;;;;;5074255;28;20235;-54
2021/07/25 10:21:56;;;;;;;8.80;7.82;;;22.50;99.90;;;;;;5074491;28;20215;-48
2021/07/25 10:24:27;;;;;;;6.90;5.95;;;22.70;99.90;;;;;;5074345;28;20207;-54
2021/07/25 10:26:58;;;;;;;7.85;7.15;;;22.90;99.90;;;;;;5074117;28;20296;-52
2021/07/25 10:29:29;;;;;;;6.63;5.97;;;23.10;99.90;;;;;;5074150;28;20261;-52
2021/07/25 10:31:57;;;;;;;5.00;4.60;;;23.30;99.90;;;;;;5074148;28;20239;-53
2021/07/25 10:34:26;;;;;;;5.53;5.03;;;23.40;99.90;;;;;;5074331;28;20204;-47
2021/07/25 10:36:54;;;;;;;5.28;4.85;;;23.40;99.90;;;;;;5073989;28;20317;-50
2021/07/25 10:39:25;;;;;;;8.82;5.43;;;23.50;99.90;;;;;;5074152;28;20218;-48
2021/07/25 10:41:59;;;;;;;5.15;4.75;;;23.50;99.90;;;;;;5073103;28;20634;-48
2021/07/25 10:44:28;;;;;;;5.63;4.78;;;23.50;99.90;;;;;;5074274;28;20242;-52
2021/07/25 10:47:21;;;;;;;5.07;4.68;;;23.50;99.90;;;;;;5073933;28;20659;-48
2021/07/25 10:49:59;;;;;;;5.25;4.82;;;23.50;99.90;;;;;;5074156;28;20215;-49
2021/07/25 10:52:28;;;;;;;5.70;5.10;;;23.50;99.90;;;;;;5074046;28;20234;-50
2021/07/25 10:54:56;;;;;;;6.25;5.75;;;23.50;99.90;;;;;;5073857;28;20207;-48
2021/07/25 10:57:26;;;;;;;5.90;5.13;;;23.60;99.90;;;;;;5073760;28;20200;-48
2021/07/25 10:59:55;;;;;;;5.72;5.07;;;23.60;99.90;;;;;;5073550;28;20214;-48
2021/07/25 11:02:54;;;;;;;5.38;4.88;;;23.50;99.90;;;;;;5073810;28;20242;-51
2021/07/25 11:05:24;;;;;;;5.50;5.00;;;23.40;99.90;;;;;;5073819;28;20207;-49
2021/07/25 11:08:00;;;;;;;6.70;5.05;;;23.40;99.90;;;;;;5073595;28;20200;-49
2021/07/25 11:10:32;;;;;;;5.50;4.60;;;23.30;99.90;;;;;;5073495;28;20207;-51
2021/07/25 11:13:20;;;;;;;5.57;5.05;;;23.10;99.90;;;;;;5073407;28;20207;-50
2021/07/25 11:15:49;;;;;;;8.32;5.80;;;22.90;99.90;;;;;;5073474;28;20203;-52
2021/07/25 11:18:30;;;;;;;6.10;5.18;;;22.70;99.90;;;;;;5073236;28;20293;-52
2021/07/25 11:20:59;;;;;;;5.75;5.28;;;22.40;99.90;;;;;;5073152;28;20207;-50
2021/07/25 11:23:36;;;;;;;6.85;5.05;;;22.20;99.90;;;;;;5073169;28;20253;-53
2021/07/25 11:26:34;;;;;;;5.75;5.28;;;22.20;99.90;;;;;;5072983;28;20233;-51
2021/07/25 11:29:09;;;;;;;6.13;5.57;;;22.20;99.90;;;;;;5073219;28;20212;-51
2021/07/25 11:31:50;;;;;;;6.03;5.38;;;22.10;99.90;;;;;;5073052;28;20217;-49
2021/07/25 11:34:28;;;;;;;6.60;6.00;;;22.20;99.90;;;;;;5073134;28;20212;-52
2021/07/25 11:36:59;;;;;;;5.32;4.93;;;22.30;99.90;;;;;;5073104;28;20241;-49
2021/07/25 11:39:27;;;;;;;5.25;4.85;;;22.40;99.90;;;;;;5072944;28;20203;-51
2021/07/25 11:41:56;;;;;;;6.28;5.65;;;22.60;99.90;;;;;;5072898;28;20238;-48
2021/07/25 11:44:29;;;;;;;5.22;4.72;;;22.80;99.90;;;;;;5072823;28;20250;-55
2021/07/25 11:46:58;;;;;;;5.78;5.28;;;22.90;99.90;;;;;;5072983;28;20237;-48
2021/07/25 11:49:27;;;;;;;5.28;4.82;;;22.90;99.90;;;;;;5072780;28;20208;-49
2021/07/25 11:51:58;;;;;;;6.13;5.53;;;22.90;99.90;;;;;;5072789;28;20310;-53
2021/07/25 11:54:28;;;;;;;9.15;5.45;;;22.90;99.90;;;;;;5072487;28;20298;-52
2021/07/25 11:57:05;;;;;;;6.85;6.15;;;22.90;99.90;;;;;;5072498;28;20306;-52
2021/07/25 11:59:36;;;;;;;5.22;4.80;;;23.00;99.90;;;;;;5072746;28;20322;-53
2021/07/25 12:02:06;;;;;;;7.38;4.53;;;23.00;99.90;;;;;;5072462;28;20301;-53
2021/07/25 12:04:35;;;;;;;5.30;4.80;;;23.10;99.90;;;;;;5075177;28;20617;-51
2021/07/25 12:07:15;;;;;;;4.97;4.43;;;23.20;99.90;;;;;;5072300;28;20313;-54
2021/07/25 12:09:45;;;;;;;4.68;4.22;;;23.50;99.90;;;;;;5072475;28;20276;-51
2021/07/25 12:12:15;;;;;;;5.30;4.78;;;23.70;99.90;;;;;;5071837;28;20211;-50
2021/07/25 12:14:46;;;;;;;5.22;4.82;;;23.80;99.90;;;;;;5072393;28;20207;-49
2021/07/25 12:17:48;;;;;;;5.35;4.95;;;23.90;99.90;;;;;;5072089;28;20667;-47
2021/07/25 12:20:18;;;;;;;5.15;4.63;;;23.90;99.90;;;;;;5072334;28;20289;-53
2021/07/25 12:22:50;;;;;;;4.47;4.07;;;23.90;99.90;;;;;;5072145;28;20298;-50
2021/07/25 12:25:19;;;;;;;4.47;4.07;;;23.90;99.90;;;;;;5072304;28;20294;-48
2021/07/25 12:28:01;;;;;;;6.57;4.10;;;24.00;99.90;;;;;;5071893;28;20428;-47
2021/07/25 12:30:39;;;;;;;5.20;4.80;;;24.10;99.90;;;;;;5072314;28;20298;-52
2021/07/25 12:33:08;;;;;;;5.60;5.10;;;24.10;99.90;;;;;;5072229;28;20306;-48
2021/07/25 12:35:36;;;;;;;8.38;3.80;;;24.10;99.90;;;;;;5072091;28;20219;-48
2021/07/25 12:38:09;;;;;;;5.65;5.15;;;24.10;99.90;;;;;;5072048;28;20596;-50
2021/07/25 12:40:47;;;;;;;4.25;3.90;;;24.20;99.90;;;;;;5071911;28;20211;-49
2021/07/25 12:43:17;;;;;;;4.38;3.95;;;24.40;99.90;;;;;;5072212;28;20294;-49
2021/07/25 12:45:47;;;;;;;5.75;4.45;;;24.50;99.90;;;;;;5071983;28;20298;-49
2021/07/25 12:48:31;;;;;;;6.32;5.07;;;24.60;99.90;;;;;;5072174;28;20318;-51
2021/07/25 12:51:17;;;;;;;5.55;4.75;;;24.70;99.90;;;;;;5071584;28;20211;-51
2021/07/25 12:53:47;;;;;;;8.32;6.15;;;24.70;99.90;;;;;;5071536;28;20214;-52
2021/07/25 12:56:17;;;;;;;4.85;4.40;;;24.80;99.90;;;;;;5071866;28;20212;-54
2021/07/25 12:58:47;;;;;;;5.15;4.45;;;25.00;99.90;;;;;;5071812;28;20238;-55